Weather History for Cody, WY

Change the Weather History Date:

Saturday, November 24, 2012

  Actual Average Record
Temperature  
Mean Temperature 44 °F -  
Max Temperature 55 °F 41 °F 66 °F (1933)
Min Temperature 33 °F 22 °F -16 °F (2010)
Degree Days  
Heating Degree Days 21    
Moisture  
Dew Point 24 °F    
Average Humidity 42    
Maximum Humidity 70    
Minimum Humidity 21    
Precipitation  
Precipitation 0.00 in - - ()
Sea Level Pressure  
Sea Level Pressure 29.97 in    
Wind  
Wind Speed 10 mph (WNW)    
Max Wind Speed 22 mph    
Max Gust Speed 36 mph    
Visibility 10 miles    
Events      
Averages and records for this station are not official NWS values.
T = Trace of Precipitation, MM = Missing Value Source: NWS Daily Summary

Daily Weather History Graph

Daily Weather History Graph

Search for Another Location

Airport:

Trip Planner

Search our weather history database for the weather conditions in past years. The results will help you decide how hot, cold, wet, or windy it might be!

Date:

Astronomy

Nov. 24, 2012 Rise Set
Actual Time 7:24 AM MST 4:40 PM MST
Civil Twilight 6:52 AM MST 5:13 PM MST
Nautical Twilight 6:16 AM MST 5:48 PM MST
Astronomical Twilight 5:41 AM MST 6:23 PM MST
Moon 2:33 PM MST (11/24) 3:38 AM MST (11/24)
Length of Visible Light 10h 20m
Length of Day
9h 15m
Waxing Gibbous, 87% of the Moon is Illuminated
Nov 24
Waxing Gibbous
Nov 28
Full
Dec 6
Last Quarter
Dec 13
New
Dec 19
First Quarter

Hourly Weather History & Observations

Time (MST) Temp. Windchill Dew Point Humidity Pressure Visibility Wind Dir Wind Speed Gust Speed Precip Events Conditions
12:15 AM 46.4 °F 42.9 °F 17.6 °F 32% 30.07 in 10.0 mi WSW 6.9 mph - N/A   Clear
12:35 AM 48.2 °F - 17.6 °F 30% 30.06 in 10.0 mi SW 5.8 mph - N/A   Clear
12:55 AM 50.0 °F - 15.8 °F 26% 30.06 in 10.0 mi WSW 4.6 mph - N/A   Clear
1:35 AM 51.8 °F - 15.8 °F 24% 30.04 in 10.0 mi South 13.8 mph - N/A   Scattered Clouds
2:15 AM 48.2 °F - 15.8 °F 27% 30.02 in 10.0 mi SSE 13.8 mph - N/A   Overcast
2:35 AM 48.2 °F - 15.8 °F 27% 30.01 in 10.0 mi South 11.5 mph - N/A   Overcast
2:55 AM 50.0 °F - 14.0 °F 24% 30.01 in 10.0 mi South 10.4 mph 21.9 mph N/A   Overcast
3:15 AM 46.4 °F 42.9 °F 15.8 °F 29% 30.00 in 10.0 mi SSE 6.9 mph - N/A   Mostly Cloudy
3:55 AM 48.2 °F - 15.8 °F 27% 30.00 in 10.0 mi SSW 10.4 mph - N/A   Overcast
4:15 AM 51.8 °F - 17.6 °F 26% 29.98 in 10.0 mi West 11.5 mph 24.2 mph N/A   Overcast
4:35 AM 53.6 °F - 15.8 °F 22% 29.98 in 10.0 mi WSW 16.1 mph 29.9 mph N/A   Overcast
4:55 AM 53.6 °F - 14.0 °F 21% 29.97 in 10.0 mi WSW 13.8 mph 20.7 mph N/A   Overcast
5:15 AM 53.6 °F - 14.0 °F 21% 29.97 in 10.0 mi NW 8.1 mph - N/A   Scattered Clouds
5:35 AM 33.8 °F 27.0 °F 17.6 °F 52% 29.98 in 10.0 mi NNE 8.1 mph - N/A   Clear
6:15 AM 37.4 °F 32.8 °F 15.8 °F 41% 29.96 in 10.0 mi NNE 5.8 mph - N/A   Clear
6:35 AM 42.8 °F 38.0 °F 19.4 °F 39% 29.96 in 10.0 mi WNW 8.1 mph - N/A   Clear
6:55 AM 48.2 °F - 17.6 °F 30% 29.95 in 10.0 mi NNW 5.8 mph - N/A   Clear
7:15 AM 48.2 °F - 17.6 °F 30% 29.97 in 10.0 mi NNW 6.9 mph - N/A   Partly Cloudy
7:35 AM 48.2 °F - 19.4 °F 32% 29.96 in 10.0 mi NE 12.7 mph - N/A   Mostly Cloudy
7:55 AM 44.6 °F 40.2 °F 17.6 °F 34% 29.99 in 10.0 mi NW 8.1 mph - N/A   Mostly Cloudy
8:15 AM 48.2 °F - 21.2 °F 34% 29.97 in 10.0 mi West 17.3 mph 31.1 mph N/A   Scattered Clouds
8:35 AM 50.0 °F - 21.2 °F 32% 29.97 in 10.0 mi WNW 12.7 mph 35.7 mph N/A   Clear
8:55 AM 50.0 °F - 23.0 °F 35% 29.99 in 10.0 mi West 13.8 mph 31.1 mph N/A   Partly Cloudy
9:15 AM 48.2 °F - 24.8 °F 40% 29.99 in 10.0 mi WNW 18.4 mph 24.2 mph N/A   Clear
9:35 AM 48.2 °F - 24.8 °F 40% 29.98 in 10.0 mi West 21.9 mph 35.7 mph N/A   Partly Cloudy
9:55 AM 48.2 °F - 24.8 °F 40% 29.97 in 10.0 mi WNW 6.9 mph 32.2 mph N/A   Scattered Clouds
10:15 AM 50.0 °F - 24.8 °F 37% 29.97 in 10.0 mi West 10.4 mph 27.6 mph N/A   Mostly Cloudy
10:35 AM 50.0 °F - 23.0 °F 35% 29.96 in 10.0 mi SSE 3.5 mph - N/A   Scattered Clouds
11:15 AM 50.0 °F - 21.2 °F 32% 29.95 in 10.0 mi NE 9.2 mph 17.3 mph N/A   Clear
11:55 AM 50.0 °F - 26.6 °F 40% 29.94 in 10.0 mi WSW 3.5 mph 16.1 mph N/A   Partly Cloudy
12:15 PM 51.8 °F - 24.8 °F 35% 29.93 in 10.0 mi WNW 5.8 mph - N/A   Partly Cloudy
12:35 PM 51.8 °F - 26.6 °F 38% 29.93 in 10.0 mi North 6.9 mph - N/A   Mostly Cloudy
12:55 PM 53.6 °F - 24.8 °F 33% 29.93 in 10.0 mi WSW 15.0 mph 20.7 mph N/A   Mostly Cloudy
1:15 PM 55.4 °F - 24.8 °F 31% 29.92 in 10.0 mi West 18.4 mph 29.9 mph N/A   Partly Cloudy
1:55 PM 53.6 °F - 26.6 °F 35% 29.92 in 10.0 mi West 18.4 mph 28.8 mph N/A   Clear
2:15 PM 53.6 °F - 26.6 °F 35% 29.92 in 10.0 mi West 19.6 mph 33.4 mph N/A   Clear
2:35 PM 51.8 °F - 28.4 °F 41% 29.92 in 10.0 mi WSW 20.7 mph 29.9 mph N/A   Clear
2:55 PM 50.0 °F - 28.4 °F 43% 29.93 in 10.0 mi WSW 17.3 mph 25.3 mph N/A   Clear
3:15 PM 48.2 °F - 28.4 °F 46% 29.93 in 10.0 mi WSW 15.0 mph 27.6 mph N/A   Clear
3:35 PM 48.2 °F - 28.4 °F 46% 29.94 in 10.0 mi WSW 10.4 mph - N/A   Clear
3:55 PM 48.2 °F - 28.4 °F 46% 29.93 in 10.0 mi WSW 13.8 mph 19.6 mph N/A   Clear
4:15 PM 48.2 °F - 28.4 °F 46% 29.94 in 10.0 mi WSW 16.1 mph 23.0 mph N/A   Clear
4:35 PM 46.4 °F 40.1 °F 28.4 °F 50% 29.95 in 10.0 mi West 15.0 mph 18.4 mph N/A   Clear
4:55 PM 46.4 °F 41.5 °F 28.4 °F 50% 29.96 in 10.0 mi WNW 10.4 mph - N/A   Clear
5:15 PM 44.6 °F 39.7 °F 28.4 °F 53% 29.96 in 10.0 mi West 9.2 mph 16.1 mph N/A   Clear
5:55 PM 44.6 °F 38.4 °F 30.2 °F 57% 29.96 in 10.0 mi West 12.7 mph 16.1 mph N/A   Scattered Clouds
6:15 PM 44.6 °F 40.2 °F 28.4 °F 53% 29.96 in 10.0 mi West 8.1 mph - N/A   Mostly Cloudy
6:35 PM 44.6 °F 40.2 °F 28.4 °F 53% 29.97 in 10.0 mi West 8.1 mph - N/A   Overcast
6:55 PM 44.6 °F 40.7 °F 28.4 °F 53% 29.97 in 10.0 mi WNW 6.9 mph - N/A   Overcast
7:15 PM 44.6 °F 41.4 °F 28.4 °F 53% 29.96 in 10.0 mi West 5.8 mph - N/A   Overcast
7:35 PM 42.8 °F 39.3 °F 28.4 °F 57% 29.96 in 10.0 mi West 5.8 mph - N/A   Overcast
7:55 PM 42.8 °F 39.3 °F 28.4 °F 57% 29.96 in 10.0 mi WNW 5.8 mph - N/A   Overcast
8:15 PM 44.6 °F 39.7 °F 28.4 °F 53% 29.96 in 10.0 mi NNW 9.2 mph - N/A   Overcast
8:35 PM 42.8 °F 37.5 °F 28.4 °F 57% 29.97 in 10.0 mi North 9.2 mph - N/A   Mostly Cloudy
8:55 PM 42.8 °F 37.5 °F 28.4 °F 57% 29.97 in 10.0 mi North 9.2 mph - N/A   Overcast
9:35 PM 39.2 °F 34.2 °F 28.4 °F 65% 29.97 in 10.0 mi North 6.9 mph - N/A   Overcast
9:55 PM 39.2 °F 33.0 °F 28.4 °F 65% 29.97 in 10.0 mi North 9.2 mph - N/A   Overcast
10:15 PM 39.2 °F 32.5 °F 26.6 °F 61% 29.98 in 10.0 mi NNW 10.4 mph - N/A   Overcast
10:35 PM 39.2 °F 34.2 °F 28.4 °F 65% 29.98 in 10.0 mi NW 6.9 mph - N/A   Overcast
10:55 PM 37.4 °F 34.9 °F 26.6 °F 65% 29.97 in 10.0 mi North 3.5 mph - N/A   Overcast
11:15 PM 37.4 °F 32.8 °F 28.4 °F 70% 29.96 in 10.0 mi North 5.8 mph - N/A   Overcast
11:35 PM 37.4 °F 30.3 °F 28.4 °F 70% 29.96 in 10.0 mi North 10.4 mph - N/A   Mostly Cloudy
11:55 PM 37.4 °F 33.8 °F 28.4 °F 70% 29.96 in 10.0 mi NW 4.6 mph - N/A   Mostly Cloudy